createdAt,value
2023-01-20T00:01:29.595Z,55.10
2023-01-20T00:03:57.771Z,55.10
2023-01-20T00:06:27.791Z,54.80
2023-01-20T00:09:02.286Z,55.00
2023-01-20T00:11:30.224Z,55.80
2023-01-20T00:14:01.861Z,54.50
2023-01-20T00:16:31.123Z,54.80
2023-01-20T00:18:58.580Z,54.10
2023-01-20T00:21:25.578Z,53.90
2023-01-20T00:23:52.600Z,54.10
2023-01-20T00:26:22.447Z,54.00
2023-01-20T00:28:50.435Z,53.40
2023-01-20T00:31:23.129Z,54.00
2023-01-20T00:33:51.687Z,53.50
2023-01-20T00:36:20.532Z,53.20
2023-01-20T00:38:48.370Z,53.50
2023-01-20T00:41:16.497Z,53.50
2023-01-20T00:43:43.752Z,53.50
2023-01-20T00:46:11.278Z,53.50
2023-01-20T00:48:38.965Z,53.80
2023-01-20T00:51:07.850Z,54.20
2023-01-20T00:53:35.391Z,53.80
2023-01-20T00:56:02.536Z,53.30
2023-01-20T00:58:29.525Z,53.50
2023-01-20T01:00:58.687Z,53.70
2023-01-20T01:03:28.119Z,54.20
2023-01-20T01:06:04.760Z,53.90
2023-01-20T01:08:31.725Z,53.20
2023-01-20T01:10:58.664Z,53.90
2023-01-20T01:13:25.723Z,54.80
2023-01-20T01:15:52.925Z,53.80
2023-01-20T01:18:19.873Z,54.30
2023-01-20T01:20:46.780Z,53.80
2023-01-20T01:23:13.903Z,53.90
2023-01-20T01:25:40.877Z,53.90
2023-01-20T01:28:08.147Z,54.40
2023-01-20T01:30:35.274Z,54.10
2023-01-20T01:33:02.232Z,54.50
2023-01-20T01:35:29.171Z,54.30
2023-01-20T01:37:56.142Z,54.60
2023-01-20T01:40:23.207Z,54.50
2023-01-20T01:42:50.141Z,54.00
2023-01-20T01:45:23.680Z,54.00
2023-01-20T01:47:59.250Z,54.40
2023-01-20T01:50:30.726Z,54.80
2023-01-20T01:52:57.821Z,54.30
2023-01-20T01:55:29.599Z,54.80
2023-01-20T01:57:58.497Z,54.00
2023-01-20T02:00:25.664Z,56.30
2023-01-20T02:02:53.763Z,54.10
2023-01-20T02:05:21.943Z,54.20
2023-01-20T02:07:49.934Z,54.40
2023-01-20T02:10:17.560Z,54.70
2023-01-20T02:12:50.307Z,54.50
2023-01-20T02:15:22.998Z,55.80
2023-01-20T02:18:25.147Z,54.60
2023-01-20T02:21:00.948Z,54.90
2023-01-20T02:23:55.831Z,54.50
2023-01-20T02:27:01.523Z,53.40
2023-01-20T02:30:02.183Z,54.30
2023-01-20T02:32:47.597Z,54.30
2023-01-20T02:35:26.514Z,54.60
2023-01-20T02:38:03.100Z,54.90
2023-01-20T02:40:49.940Z,54.20
2023-01-20T02:43:38.632Z,54.20
2023-01-20T02:46:16.069Z,53.10
2023-01-20T02:48:56.526Z,53.70
2023-01-20T02:51:30.951Z,54.00
2023-01-20T02:54:06.454Z,54.20
2023-01-20T02:56:35.933Z,54.50
2023-01-20T02:59:11.330Z,53.40
2023-01-20T03:01:55.020Z,53.70
2023-01-20T03:04:27.570Z,53.80
2023-01-20T03:06:56.988Z,54.90
2023-01-20T03:09:30.541Z,54.20
2023-01-20T03:12:04.196Z,54.10
2023-01-20T03:14:31.517Z,53.70
2023-01-20T03:16:58.507Z,53.60
2023-01-20T03:19:25.481Z,53.40
2023-01-20T03:21:52.713Z,53.60
2023-01-20T03:24:20.834Z,54.10
2023-01-20T03:26:47.787Z,54.70
2023-01-20T03:29:16.164Z,54.70
2023-01-20T03:31:55.535Z,54.20
2023-01-20T03:34:25.013Z,53.90
2023-01-20T03:36:54.321Z,54.30
2023-01-20T03:39:22.792Z,55.00
2023-01-20T03:41:52.517Z,55.30
2023-01-20T03:44:38.141Z,55.60
2023-01-20T03:47:26.845Z,55.30
2023-01-20T03:50:12.504Z,54.50
2023-01-20T03:53:05.865Z,54.40
2023-01-20T03:55:32.783Z,54.90
2023-01-20T03:58:08.514Z,54.90
2023-01-20T04:00:39.585Z,55.00
2023-01-20T04:03:13.189Z,55.30
2023-01-20T04:05:41.396Z,55.80
2023-01-20T04:08:10.623Z,54.90
2023-01-20T04:10:41.861Z,54.80
2023-01-20T04:13:09.470Z,55.20
2023-01-20T04:15:41.765Z,55.60
2023-01-20T04:18:12.275Z,54.70
2023-01-20T04:20:39.857Z,53.90
2023-01-20T04:23:08.342Z,54.20
2023-01-20T04:25:36.158Z,54.40
2023-01-20T04:28:03.111Z,53.60
2023-01-20T04:30:30.092Z,54.00
2023-01-20T04:32:57.024Z,55.20
2023-01-20T04:35:24.059Z,53.80
2023-01-20T04:37:51.009Z,53.70
2023-01-20T04:40:18.096Z,54.10
2023-01-20T04:42:45.021Z,54.80
2023-01-20T04:45:16.699Z,54.00
2023-01-20T04:47:44.350Z,54.00
2023-01-20T04:50:12.827Z,55.30
2023-01-20T04:52:39.765Z,53.90
2023-01-20T04:55:07.136Z,55.00
2023-01-20T04:57:34.177Z,54.60
2023-01-20T05:00:01.136Z,54.70
2023-01-20T05:02:28.118Z,54.60
2023-01-20T05:04:55.120Z,55.10
2023-01-20T05:07:22.287Z,54.70
2023-01-20T05:09:49.283Z,54.60
2023-01-20T05:12:16.232Z,55.70
2023-01-20T05:14:43.163Z,54.80
2023-01-20T05:17:10.075Z,54.80
2023-01-20T05:19:37.035Z,54.60
2023-01-20T05:22:03.981Z,55.70
2023-01-20T05:24:30.992Z,54.50
2023-01-20T05:27:01.374Z,54.90
2023-01-20T05:29:29.048Z,54.30
2023-01-20T05:31:56.063Z,54.70
2023-01-20T05:34:23.121Z,54.60
2023-01-20T05:36:53.996Z,54.40
2023-01-20T05:39:21.347Z,55.40
2023-01-20T05:41:48.557Z,55.30
2023-01-20T05:44:16.073Z,53.40
2023-01-20T05:46:43.201Z,56.40
2023-01-20T05:49:13.348Z,57.60
2023-01-20T05:51:40.405Z,57.10
2023-01-20T05:54:07.429Z,57.20
2023-01-20T05:56:34.459Z,57.50
2023-01-20T05:59:01.466Z,57.90
2023-01-20T06:01:28.568Z,58.10
2023-01-20T06:03:55.589Z,58.50
2023-01-20T06:06:22.574Z,58.90
2023-01-20T06:08:52.296Z,59.20
2023-01-20T06:11:19.770Z,58.70
2023-01-20T06:13:48.518Z,59.20
2023-01-20T06:16:17.889Z,59.10
2023-01-20T06:18:45.217Z,59.00
2023-01-20T06:21:12.398Z,59.10
2023-01-20T06:23:39.467Z,59.50
2023-01-20T06:26:08.883Z,59.90
2023-01-20T06:28:35.955Z,60.30
2023-01-20T06:31:08.211Z,60.60
2023-01-20T06:33:35.664Z,60.10
2023-01-20T06:36:05.576Z,59.80
2023-01-20T06:38:34.858Z,59.80
2023-01-20T06:41:07.327Z,60.40
2023-01-20T06:43:35.449Z,58.10
2023-01-20T06:46:04.754Z,58.10
2023-01-20T06:48:32.652Z,57.70
2023-01-20T06:51:05.076Z,57.30
2023-01-20T06:53:32.210Z,57.50
2023-01-20T06:56:00.852Z,57.20
2023-01-20T06:58:30.683Z,57.00
2023-01-20T07:01:04.109Z,57.20
2023-01-20T07:03:31.156Z,57.20
2023-01-20T07:06:00.911Z,57.70
2023-01-20T07:08:28.805Z,57.10
2023-01-20T07:10:56.385Z,57.10
2023-01-20T07:13:23.396Z,56.70
2023-01-20T07:15:50.317Z,56.90
2023-01-20T07:18:17.244Z,57.20
2023-01-20T07:20:44.192Z,56.70
2023-01-20T07:23:11.390Z,57.00
2023-01-20T07:25:39.528Z,55.90
2023-01-20T07:28:06.486Z,56.40
2023-01-20T07:30:33.599Z,55.10
2023-01-20T07:33:00.775Z,55.60
2023-01-20T07:35:27.792Z,56.60
2023-01-20T07:37:55.155Z,55.00
2023-01-20T07:40:22.139Z,54.70
2023-01-20T07:42:49.140Z,54.70
2023-01-20T07:45:17.030Z,54.50
2023-01-20T07:47:44.290Z,54.30
2023-01-20T07:50:11.404Z,54.90
2023-01-20T07:52:38.428Z,54.90
2023-01-20T07:55:05.695Z,54.60
2023-01-20T07:57:33.538Z,54.30
2023-01-20T08:00:00.493Z,54.20
2023-01-20T08:02:27.453Z,54.30
2023-01-20T08:04:54.507Z,54.40
2023-01-20T08:07:21.479Z,54.30
2023-01-20T08:09:50.077Z,55.10
2023-01-20T08:12:17.142Z,56.50
2023-01-20T08:14:44.077Z,54.80
2023-01-20T08:17:11.089Z,55.50
2023-01-20T08:19:38.061Z,56.40
2023-01-20T08:22:05.174Z,55.10
2023-01-20T08:24:32.146Z,54.90
2023-01-20T08:26:59.298Z,54.70
2023-01-20T08:29:26.281Z,54.40
2023-01-20T08:31:53.347Z,54.20
2023-01-20T08:34:21.444Z,54.10
2023-01-20T08:36:50.123Z,54.60
2023-01-20T08:39:19.128Z,54.30
2023-01-20T08:41:47.256Z,53.80
2023-01-20T08:44:15.645Z,54.80
2023-01-20T08:46:43.272Z,53.70
2023-01-20T08:49:13.058Z,53.60
2023-01-20T08:51:40.553Z,54.30
2023-01-20T08:54:07.714Z,53.30
2023-01-20T08:56:36.450Z,54.60
2023-01-20T08:59:04.023Z,55.00
2023-01-20T09:01:37.826Z,53.70
2023-01-20T09:04:07.087Z,53.80
2023-01-20T09:06:46.231Z,54.10
2023-01-20T09:09:15.642Z,53.50
2023-01-20T09:11:44.932Z,54.20
2023-01-20T09:14:12.071Z,53.70
2023-01-20T09:16:38.994Z,53.70
2023-01-20T09:19:05.953Z,53.90
2023-01-20T09:21:33.775Z,53.50
2023-01-20T09:24:00.802Z,55.50
2023-01-20T09:26:35.663Z,54.30
2023-01-20T09:29:09.397Z,54.80
2023-01-20T09:31:45.836Z,54.80
2023-01-20T09:34:19.630Z,55.70
2023-01-20T09:37:21.305Z,55.50
2023-01-20T09:40:07.342Z,55.10
2023-01-20T09:43:17.557Z,55.80
2023-01-20T09:45:59.962Z,57.40
2023-01-20T09:49:21.855Z,56.00
2023-01-20T09:52:29.490Z,56.00
2023-01-20T09:55:02.145Z,56.40
2023-01-20T09:57:33.778Z,56.60
2023-01-20T10:00:17.736Z,56.40
2023-01-20T10:03:02.814Z,56.90
2023-01-20T10:05:37.632Z,57.10
2023-01-20T10:08:52.594Z,56.60
2023-01-20T10:11:28.931Z,56.10
2023-01-20T10:14:25.413Z,56.60
2023-01-20T10:17:01.818Z,56.60
2023-01-20T10:19:38.564Z,56.60
2023-01-20T10:22:13.400Z,57.10
2023-01-20T10:25:02.942Z,57.00
2023-01-20T10:27:34.029Z,57.40
2023-01-20T10:30:12.027Z,58.20
2023-01-20T10:32:45.680Z,57.70
2023-01-20T10:35:26.279Z,57.50
2023-01-20T10:37:55.707Z,57.10
2023-01-20T10:40:52.092Z,56.40
2023-01-20T10:43:19.995Z,56.90
2023-01-20T10:46:04.920Z,57.40
2023-01-20T10:49:15.980Z,57.00
2023-01-20T10:52:04.341Z,57.70
2023-01-20T10:54:46.352Z,57.40
2023-01-20T10:57:15.680Z,58.50
2023-01-20T10:59:54.756Z,57.80
2023-01-20T11:02:34.849Z,57.70
2023-01-20T11:05:16.368Z,56.90
2023-01-20T11:07:44.907Z,57.60
2023-01-20T11:10:24.974Z,56.70
2023-01-20T11:12:55.569Z,58.10
2023-01-20T11:15:27.632Z,57.40
2023-01-20T11:18:16.249Z,57.20
2023-01-20T11:20:46.129Z,55.90
2023-01-20T11:23:37.785Z,55.50
2023-01-20T11:26:32.109Z,55.30
2023-01-20T11:29:03.708Z,55.00
2023-01-20T11:31:58.146Z,55.80
2023-01-20T11:34:32.219Z,56.50
2023-01-20T11:37:05.150Z,54.90
2023-01-20T11:39:43.890Z,55.10
2023-01-20T11:42:24.882Z,55.00
2023-01-20T11:45:25.551Z,54.90
2023-01-20T11:48:19.229Z,53.70
2023-01-20T11:50:57.571Z,55.10
2023-01-20T11:53:27.450Z,55.30
2023-01-20T11:55:58.420Z,55.00
2023-01-20T11:58:45.809Z,54.30
2023-01-20T12:01:27.934Z,54.60
2023-01-20T12:03:57.969Z,53.80
2023-01-20T12:06:46.671Z,53.90
2023-01-20T12:09:16.802Z,54.10
2023-01-20T12:11:57.623Z,54.30
2023-01-20T12:14:34.037Z,54.70
2023-01-20T12:17:11.571Z,54.10
2023-01-20T12:19:53.794Z,53.90
2023-01-20T12:22:46.943Z,54.70
2023-01-20T12:25:29.505Z,54.10
2023-01-20T12:28:10.468Z,54.60
2023-01-20T12:30:43.840Z,55.30
2023-01-20T12:33:23.486Z,54.40
2023-01-20T12:36:26.932Z,54.40
2023-01-20T12:39:08.236Z,54.50
2023-01-20T12:42:04.536Z,54.10
2023-01-20T12:45:21.984Z,54.60
2023-01-20T12:48:11.113Z,55.10
2023-01-20T12:51:05.638Z,53.80
2023-01-20T12:53:42.386Z,53.50
2023-01-20T12:56:33.478Z,55.70
2023-01-20T12:59:17.285Z,55.00
2023-01-20T13:01:52.945Z,54.50
2023-01-20T13:04:54.155Z,54.10
2023-01-20T13:07:21.081Z,54.40
2023-01-20T13:09:47.963Z,55.10
2023-01-20T13:12:40.561Z,55.40
2023-01-20T13:15:28.379Z,56.40
2023-01-20T13:18:19.689Z,55.00
2023-01-20T13:20:47.501Z,54.40
2023-01-20T13:23:17.947Z,55.10
2023-01-20T13:25:47.072Z,55.00
2023-01-20T13:28:17.872Z,54.20
2023-01-20T13:30:48.235Z,54.40
2023-01-20T13:33:37.442Z,54.10
2023-01-20T13:36:24.522Z,54.00
2023-01-20T13:39:29.421Z,53.50
2023-01-20T13:41:56.823Z,54.00
2023-01-20T13:44:42.275Z,54.20
2023-01-20T13:47:13.407Z,54.00
2023-01-20T13:49:54.563Z,53.50
2023-01-20T13:53:07.376Z,53.50
2023-01-20T13:55:41.274Z,52.90
2023-01-20T13:58:15.461Z,53.90
2023-01-20T14:00:42.653Z,54.80
2023-01-20T14:03:32.505Z,52.50
2023-01-20T14:06:00.553Z,52.30
2023-01-20T14:08:31.230Z,53.20
2023-01-20T14:11:11.635Z,53.10
2023-01-20T14:13:38.888Z,53.60
2023-01-20T14:16:17.823Z,54.20
2023-01-20T14:18:44.879Z,53.70
2023-01-20T14:21:27.663Z,53.50
2023-01-20T14:23:54.707Z,53.70
2023-01-20T14:26:28.080Z,53.90
2023-01-20T14:29:05.123Z,53.40
2023-01-20T14:31:40.575Z,54.00
2023-01-20T14:34:23.226Z,53.80
2023-01-20T14:36:51.474Z,53.70
2023-01-20T14:39:28.051Z,54.10
2023-01-20T14:41:59.759Z,53.80
2023-01-20T14:44:34.467Z,54.10
2023-01-20T14:47:03.467Z,53.50
2023-01-20T14:49:39.439Z,53.90
2023-01-20T14:52:09.319Z,54.20
2023-01-20T14:54:42.203Z,54.40
2023-01-20T14:57:27.714Z,54.90
2023-01-20T15:00:29.674Z,54.70
2023-01-20T15:03:10.925Z,54.50
2023-01-20T15:05:42.539Z,54.50
2023-01-20T15:08:15.052Z,54.30
2023-01-20T15:10:42.730Z,53.90
2023-01-20T15:13:26.377Z,54.00
2023-01-20T15:16:07.798Z,54.60
2023-01-20T15:18:34.837Z,54.60
2023-01-20T15:21:24.573Z,54.60
2023-01-20T15:23:52.852Z,54.80
2023-01-20T15:26:30.330Z,55.10
2023-01-20T15:28:58.698Z,55.00
2023-01-20T15:31:26.591Z,54.90
2023-01-20T15:33:54.663Z,55.90
2023-01-20T15:36:29.854Z,55.80
2023-01-20T15:38:56.776Z,56.10
2023-01-20T15:41:24.398Z,56.30
2023-01-20T15:43:52.536Z,57.50
2023-01-20T15:46:19.933Z,57.40
2023-01-20T15:48:47.032Z,57.70
2023-01-20T15:51:16.692Z,57.60
2023-01-20T15:53:44.717Z,57.40
2023-01-20T15:56:25.430Z,57.10
2023-01-20T15:58:52.692Z,57.40
2023-01-20T16:01:24.006Z,57.40
2023-01-20T16:03:52.693Z,57.80
2023-01-20T16:06:30.774Z,57.70
2023-01-20T16:09:00.234Z,57.10
2023-01-20T16:11:27.337Z,57.30
2023-01-20T16:13:54.965Z,56.90
2023-01-20T16:16:24.505Z,56.60
2023-01-20T16:18:53.177Z,56.90
2023-01-20T16:21:20.385Z,57.00
2023-01-20T16:23:47.429Z,56.50
2023-01-20T16:26:24.390Z,57.10
2023-01-20T16:28:53.567Z,56.90
2023-01-20T16:31:21.667Z,56.90
2023-01-20T16:33:48.855Z,56.60
2023-01-20T16:36:20.963Z,56.70
2023-01-20T16:38:48.871Z,56.60
2023-01-20T16:41:27.825Z,56.70
2023-01-20T16:43:55.901Z,56.40
2023-01-20T16:46:27.785Z,56.60
2023-01-20T16:48:59.459Z,56.10
2023-01-20T16:51:26.751Z,55.70
2023-01-20T16:53:56.361Z,56.10
2023-01-20T16:56:26.036Z,55.90
2023-01-20T16:58:54.759Z,55.50
2023-01-20T17:01:24.724Z,55.70
2023-01-20T17:03:53.966Z,55.20
2023-01-20T17:06:23.402Z,55.00
2023-01-20T17:08:52.973Z,54.80
2023-01-20T17:11:30.546Z,55.00
2023-01-20T17:13:57.939Z,55.40
2023-01-20T17:16:28.383Z,55.20
2023-01-20T17:18:58.550Z,55.20
2023-01-20T17:21:28.520Z,55.30
2023-01-20T17:23:59.641Z,55.70
2023-01-20T17:26:27.203Z,55.70
2023-01-20T17:28:59.451Z,55.70
2023-01-20T17:31:28.171Z,55.80
2023-01-20T17:33:55.182Z,55.70
2023-01-20T17:36:22.246Z,55.80
2023-01-20T17:38:49.233Z,55.90
2023-01-20T17:41:16.227Z,56.30
2023-01-20T17:43:46.520Z,56.40
2023-01-20T17:46:15.777Z,56.50
2023-01-20T17:48:43.440Z,57.20
2023-01-20T17:51:16.091Z,56.60
2023-01-20T17:53:43.798Z,56.70
2023-01-20T17:56:13.564Z,56.60
2023-01-20T17:58:43.522Z,56.40
2023-01-20T18:01:11.238Z,56.30
2023-01-20T18:03:40.019Z,56.50
2023-01-20T18:06:09.563Z,56.30
2023-01-20T18:08:38.162Z,56.30
2023-01-20T18:11:15.328Z,56.20
2023-01-20T18:13:45.022Z,56.40
2023-01-20T18:16:13.857Z,56.60
2023-01-20T18:18:45.507Z,56.40
2023-01-20T18:21:15.356Z,56.20
2023-01-20T18:23:43.682Z,56.50
2023-01-20T18:26:13.812Z,56.40
2023-01-20T18:28:41.987Z,56.40
2023-01-20T18:31:18.416Z,56.40
2023-01-20T18:33:52.312Z,56.80
2023-01-20T18:36:23.839Z,57.50
2023-01-20T18:38:58.728Z,57.30
2023-01-20T18:41:27.737Z,58.10
2023-01-20T18:43:55.200Z,58.50
2023-01-20T18:46:22.518Z,58.60
2023-01-20T18:48:51.953Z,58.40
2023-01-20T18:51:21.146Z,58.40
2023-01-20T18:53:54.868Z,58.20
2023-01-20T18:56:22.688Z,58.40
2023-01-20T18:58:49.895Z,58.40
2023-01-20T19:01:19.862Z,58.50
2023-01-20T19:03:47.771Z,58.00
2023-01-20T19:06:24.216Z,58.40
2023-01-20T19:08:52.258Z,58.40
2023-01-20T19:11:22.617Z,58.70
2023-01-20T19:13:51.271Z,58.30
2023-01-20T19:16:20.183Z,58.60
2023-01-20T19:18:55.816Z,58.70
2023-01-20T19:21:24.095Z,58.90
2023-01-20T19:23:53.049Z,59.00
2023-01-20T19:26:21.198Z,59.00
2023-01-20T19:28:55.405Z,59.30
2023-01-20T19:31:22.493Z,59.20
2023-01-20T19:33:50.148Z,59.20
2023-01-20T19:36:18.886Z,59.60
2023-01-20T19:38:46.035Z,59.90
2023-01-20T19:41:28.308Z,60.00
2023-01-20T19:43:57.592Z,59.90
2023-01-20T19:46:28.710Z,60.00
2023-01-20T19:48:57.660Z,59.90
2023-01-20T19:51:25.617Z,60.20
2023-01-20T19:53:58.068Z,60.40
2023-01-20T19:56:27.670Z,60.50
2023-01-20T19:58:55.654Z,60.90
2023-01-20T20:01:31.123Z,61.10
2023-01-20T20:03:58.973Z,60.60
2023-01-20T20:06:25.984Z,61.20
2023-01-20T20:08:55.799Z,60.90
2023-01-20T20:11:22.931Z,61.00
2023-01-20T20:13:52.693Z,61.20
2023-01-20T20:16:19.628Z,60.90
2023-01-20T20:18:51.006Z,60.40
2023-01-20T20:21:18.423Z,61.30
2023-01-20T20:23:49.202Z,60.10
2023-01-20T20:26:16.340Z,60.30
2023-01-20T20:28:43.502Z,60.10
2023-01-20T20:31:10.752Z,59.90
2023-01-20T20:33:37.910Z,60.40
2023-01-20T20:36:09.376Z,59.70
2023-01-20T20:38:37.131Z,59.90
2023-01-20T20:41:08.620Z,60.00
2023-01-20T20:43:37.336Z,59.90
2023-01-20T20:46:07.019Z,60.00
2023-01-20T20:48:35.321Z,59.60
2023-01-20T20:51:11.543Z,59.40
2023-01-20T20:53:39.141Z,59.50
2023-01-20T20:56:14.526Z,59.70
2023-01-20T20:58:55.526Z,59.50
2023-01-20T21:01:28.430Z,59.60
2023-01-20T21:03:57.719Z,59.60
2023-01-20T21:06:25.776Z,59.80
2023-01-20T21:08:53.105Z,60.20
2023-01-20T21:11:20.664Z,59.80
2023-01-20T21:13:50.891Z,60.20
2023-01-20T21:16:21.943Z,59.50
2023-01-20T21:18:50.249Z,59.70
2023-01-20T21:21:17.583Z,59.40
2023-01-20T21:23:52.000Z,60.00
2023-01-20T21:26:19.930Z,60.20
2023-01-20T21:28:49.281Z,59.60
2023-01-20T21:31:21.055Z,59.60
2023-01-20T21:33:53.610Z,59.60
2023-01-20T21:36:21.460Z,59.50
2023-01-20T21:38:48.841Z,59.50
2023-01-20T21:41:17.096Z,59.30
2023-01-20T21:44:04.254Z,59.20
2023-01-20T21:46:36.495Z,58.60
2023-01-20T21:49:24.802Z,59.50
2023-01-20T21:52:10.563Z,59.10
2023-01-20T21:54:39.804Z,58.80
2023-01-20T21:57:07.405Z,59.10
2023-01-20T21:59:34.293Z,58.40
2023-01-20T22:02:01.347Z,59.30
2023-01-20T22:04:29.067Z,58.70
2023-01-20T22:06:56.083Z,58.90
2023-01-20T22:09:23.301Z,59.40
2023-01-20T22:11:50.381Z,59.50
2023-01-20T22:14:17.442Z,59.40
2023-01-20T22:16:44.481Z,59.10
2023-01-20T22:19:14.498Z,59.00
2023-01-20T22:21:41.963Z,59.30
2023-01-20T22:24:09.827Z,59.20
2023-01-20T22:26:37.301Z,58.80
2023-01-20T22:29:04.399Z,58.30
2023-01-20T22:31:34.267Z,59.30
2023-01-20T22:34:06.278Z,59.00
2023-01-20T22:36:34.390Z,59.60
2023-01-20T22:39:02.291Z,59.50
2023-01-20T22:41:29.354Z,59.20
2023-01-20T22:43:56.690Z,59.10
2023-01-20T22:46:25.956Z,59.10
2023-01-20T22:48:54.438Z,59.20
2023-01-20T22:51:23.278Z,58.80
2023-01-20T22:53:52.238Z,58.60
2023-01-20T22:56:21.669Z,59.00
2023-01-20T22:58:48.643Z,59.30
2023-01-20T23:01:30.364Z,58.70
2023-01-20T23:04:00.157Z,58.90
2023-01-20T23:06:28.866Z,59.30
2023-01-20T23:08:55.970Z,59.30
2023-01-20T23:11:24.050Z,59.20
2023-01-20T23:13:52.064Z,59.20
2023-01-20T23:16:22.309Z,59.00
2023-01-20T23:18:50.608Z,59.60
2023-01-20T23:21:18.182Z,58.90
2023-01-20T23:23:45.462Z,58.50
2023-01-20T23:26:17.718Z,59.90
2023-01-20T23:28:45.955Z,58.80
2023-01-20T23:31:15.365Z,58.70
2023-01-20T23:33:43.920Z,57.60
2023-01-20T23:36:13.117Z,59.60
2023-01-20T23:38:40.441Z,58.70
2023-01-20T23:41:07.386Z,59.80
2023-01-20T23:43:34.473Z,59.20
2023-01-20T23:46:03.676Z,59.40
2023-01-20T23:48:31.085Z,58.10
2023-01-20T23:50:59.938Z,58.50
2023-01-20T23:53:28.577Z,58.70
2023-01-20T23:56:03.431Z,58.60
2023-01-20T23:58:30.749Z,59.90
